sensor_id;sensor_type;location;lat;lon;timestamp;temperature;humidity
22623;DHT22;11478;51.094;7.030;2023-05-17T00:00:53;6.80;99.90
22623;DHT22;11478;51.094;7.030;2023-05-17T00:03:19;6.70;99.90
22623;DHT22;11478;51.094;7.030;2023-05-17T00:05:45;6.70;99.90
22623;DHT22;11478;51.094;7.030;2023-05-17T00:08:11;6.60;99.90
22623;DHT22;11478;51.094;7.030;2023-05-17T00:10:41;6.60;99.90
22623;DHT22;11478;51.094;7.030;2023-05-17T00:13:07;6.60;99.90
22623;DHT22;11478;51.094;7.030;2023-05-17T00:15:33;6.60;99.90
22623;DHT22;11478;51.094;7.030;2023-05-17T00:18:07;6.60;99.90
22623;DHT22;11478;51.094;7.030;2023-05-17T00:20:33;6.60;99.90
22623;DHT22;11478;51.094;7.030;2023-05-17T00:23:02;6.60;99.90
22623;DHT22;11478;51.094;7.030;2023-05-17T00:25:28;6.50;99.90
22623;DHT22;11478;51.094;7.030;2023-05-17T00:27:56;6.40;99.90
22623;DHT22;11478;51.094;7.030;2023-05-17T00:30:22;6.40;99.90
22623;DHT22;11478;51.094;7.030;2023-05-17T00:32:55;6.40;99.90
22623;DHT22;11478;51.094;7.030;2023-05-17T00:35:21;6.30;99.90
22623;DHT22;11478;51.094;7.030;2023-05-17T00:37:52;6.30;99.90
22623;DHT22;11478;51.094;7.030;2023-05-17T00:40:18;6.30;99.90
22623;DHT22;11478;51.094;7.030;2023-05-17T00:42:51;6.30;99.90
22623;DHT22;11478;51.094;7.030;2023-05-17T00:45:16;6.20;99.90
22623;DHT22;11478;51.094;7.030;2023-05-17T00:47:43;6.20;99.90
22623;DHT22;11478;51.094;7.030;2023-05-17T00:50:09;6.20;99.90
22623;DHT22;11478;51.094;7.030;2023-05-17T00:52:46;6.20;99.90
22623;DHT22;11478;51.094;7.030;2023-05-17T00:55:12;6.20;99.90
22623;DHT22;11478;51.094;7.030;2023-05-17T00:57:41;6.20;99.90
22623;DHT22;11478;51.094;7.030;2023-05-17T01:00:07;6.20;99.90
22623;DHT22;11478;51.094;7.030;2023-05-17T01:02:40;6.20;99.90
22623;DHT22;11478;51.094;7.030;2023-05-17T01:05:08;6.20;99.90
22623;DHT22;11478;51.094;7.030;2023-05-17T01:07:35;6.20;99.90
22623;DHT22;11478;51.094;7.030;2023-05-17T01:10:01;6.20;99.90
22623;DHT22;11478;51.094;7.030;2023-05-17T01:15:34;6.20;99.90
22623;DHT22;11478;51.094;7.030;2023-05-17T01:26:55;6.20;99.90
22623;DHT22;11478;51.094;7.030;2023-05-17T01:29:24;6.10;99.90
22623;DHT22;11478;51.094;7.030;2023-05-17T01:31:51;6.20;99.90
22623;DHT22;11478;51.094;7.030;2023-05-17T01:34:28;6.20;99.90
22623;DHT22;11478;51.094;7.030;2023-05-17T01:36:54;6.20;99.90
22623;DHT22;11478;51.094;7.030;2023-05-17T01:39:22;6.20;99.90
22623;DHT22;11478;51.094;7.030;2023-05-17T01:42:03;6.10;99.90
22623;DHT22;11478;51.094;7.030;2023-05-17T01:44:42;6.10;99.90
22623;DHT22;11478;51.094;7.030;2023-05-17T01:47:18;6.10;99.90
22623;DHT22;11478;51.094;7.030;2023-05-17T01:49:48;6.10;99.90
22623;DHT22;11478;51.094;7.030;2023-05-17T01:57:36;6.00;99.90
22623;DHT22;11478;51.094;7.030;2023-05-17T02:00:06;6.00;99.90
22623;DHT22;11478;51.094;7.030;2023-05-17T02:02:35;6.00;99.90
22623;DHT22;11478;51.094;7.030;2023-05-17T02:05:01;5.90;99.90
22623;DHT22;11478;51.094;7.030;2023-05-17T02:07:28;5.90;99.90
22623;DHT22;11478;51.094;7.030;2023-05-17T02:09:54;5.90;99.90
22623;DHT22;11478;51.094;7.030;2023-05-17T02:12:31;5.80;99.90
22623;DHT22;11478;51.094;7.030;2023-05-17T02:14:57;5.90;99.90
22623;DHT22;11478;51.094;7.030;2023-05-17T02:17:24;5.80;99.90
22623;DHT22;11478;51.094;7.030;2023-05-17T02:19:51;5.80;99.90
22623;DHT22;11478;51.094;7.030;2023-05-17T02:22:17;5.80;99.90
22623;DHT22;11478;51.094;7.030;2023-05-17T02:24:43;5.80;99.90
22623;DHT22;11478;51.094;7.030;2023-05-17T02:27:09;5.80;99.90
22623;DHT22;11478;51.094;7.030;2023-05-17T02:29:38;5.80;99.90
22623;DHT22;11478;51.094;7.030;2023-05-17T02:32:04;5.80;99.90
22623;DHT22;11478;51.094;7.030;2023-05-17T02:34:34;5.70;99.90
22623;DHT22;11478;51.094;7.030;2023-05-17T02:37:00;5.70;99.90
22623;DHT22;11478;51.094;7.030;2023-05-17T02:39:41;5.70;99.90
22623;DHT22;11478;51.094;7.030;2023-05-17T02:42:07;5.70;99.90
22623;DHT22;11478;51.094;7.030;2023-05-17T02:44:41;5.60;99.90
22623;DHT22;11478;51.094;7.030;2023-05-17T02:47:07;5.60;99.90
22623;DHT22;11478;51.094;7.030;2023-05-17T02:49:33;5.60;99.90
22623;DHT22;11478;51.094;7.030;2023-05-17T02:51:59;5.60;99.90
22623;DHT22;11478;51.094;7.030;2023-05-17T02:54:42;5.50;99.90
22623;DHT22;11478;51.094;7.030;2023-05-17T02:57:10;5.50;99.90
22623;DHT22;11478;51.094;7.030;2023-05-17T02:59:43;5.50;99.90
22623;DHT22;11478;51.094;7.030;2023-05-17T03:05:11;5.50;99.90
22623;DHT22;11478;51.094;7.030;2023-05-17T03:07:47;5.50;99.90
22623;DHT22;11478;51.094;7.030;2023-05-17T03:10:12;5.50;99.90
22623;DHT22;11478;51.094;7.030;2023-05-17T03:12:42;5.40;99.90
22623;DHT22;11478;51.094;7.030;2023-05-17T03:15:08;5.30;99.90
22623;DHT22;11478;51.094;7.030;2023-05-17T03:17:34;5.30;99.90
22623;DHT22;11478;51.094;7.030;2023-05-17T03:20:01;5.30;99.90
22623;DHT22;11478;51.094;7.030;2023-05-17T03:22:52;5.30;99.90
22623;DHT22;11478;51.094;7.030;2023-05-17T03:25:17;5.30;99.90
22623;DHT22;11478;51.094;7.030;2023-05-17T03:27:50;5.20;99.90
22623;DHT22;11478;51.094;7.030;2023-05-17T03:30:15;5.20;99.90
22623;DHT22;11478;51.094;7.030;2023-05-17T03:32:44;5.20;99.90
22623;DHT22;11478;51.094;7.030;2023-05-17T03:35:10;5.20;99.90
22623;DHT22;11478;51.094;7.030;2023-05-17T03:37:40;5.10;99.90
22623;DHT22;11478;51.094;7.030;2023-05-17T03:40:07;5.10;99.90
22623;DHT22;11478;51.094;7.030;2023-05-17T03:42:35;5.00;99.90
22623;DHT22;11478;51.094;7.030;2023-05-17T03:45:02;5.00;99.90
22623;DHT22;11478;51.094;7.030;2023-05-17T03:47:30;5.00;99.90
22623;DHT22;11478;51.094;7.030;2023-05-17T03:49:56;5.00;99.90
22623;DHT22;11478;51.094;7.030;2023-05-17T03:52:22;5.00;99.90
22623;DHT22;11478;51.094;7.030;2023-05-17T03:54:48;5.10;99.90
22623;DHT22;11478;51.094;7.030;2023-05-17T03:57:17;5.10;99.90
22623;DHT22;11478;51.094;7.030;2023-05-17T03:59:44;5.20;99.90
22623;DHT22;11478;51.094;7.030;2023-05-17T04:02:19;5.20;99.90
22623;DHT22;11478;51.094;7.030;2023-05-17T04:04:49;5.20;99.90
22623;DHT22;11478;51.094;7.030;2023-05-17T04:07:22;5.20;99.90
22623;DHT22;11478;51.094;7.030;2023-05-17T04:09:48;5.30;99.90
22623;DHT22;11478;51.094;7.030;2023-05-17T04:12:22;5.30;99.90
22623;DHT22;11478;51.094;7.030;2023-05-17T04:14:48;5.30;99.90
22623;DHT22;11478;51.094;7.030;2023-05-17T04:17:29;5.30;99.90
22623;DHT22;11478;51.094;7.030;2023-05-17T04:20:05;5.30;99.90
22623;DHT22;11478;51.094;7.030;2023-05-17T04:22:31;5.30;99.90
22623;DHT22;11478;51.094;7.030;2023-05-17T04:25:16;5.40;99.90
22623;DHT22;11478;51.094;7.030;2023-05-17T04:27:44;5.40;99.90
22623;DHT22;11478;51.094;7.030;2023-05-17T04:30:32;5.40;99.90
22623;DHT22;11478;51.094;7.030;2023-05-17T04:32:58;5.40;99.90
22623;DHT22;11478;51.094;7.030;2023-05-17T04:35:26;5.50;99.90
22623;DHT22;11478;51.094;7.030;2023-05-17T04:37:52;5.50;99.90
22623;DHT22;11478;51.094;7.030;2023-05-17T04:40:19;5.60;99.90
22623;DHT22;11478;51.094;7.030;2023-05-17T04:42:45;5.60;99.90
22623;DHT22;11478;51.094;7.030;2023-05-17T04:45:30;5.60;99.90
22623;DHT22;11478;51.094;7.030;2023-05-17T04:47:57;5.70;99.90
22623;DHT22;11478;51.094;7.030;2023-05-17T04:50:25;5.80;99.90
22623;DHT22;11478;51.094;7.030;2023-05-17T04:52:51;5.80;99.90
22623;DHT22;11478;51.094;7.030;2023-05-17T04:55:17;5.90;99.90
22623;DHT22;11478;51.094;7.030;2023-05-17T04:57:43;6.00;99.90
22623;DHT22;11478;51.094;7.030;2023-05-17T05:00:11;6.10;99.90
22623;DHT22;11478;51.094;7.030;2023-05-17T05:02:40;6.10;99.90
22623;DHT22;11478;51.094;7.030;2023-05-17T05:05:11;6.20;99.90
22623;DHT22;11478;51.094;7.030;2023-05-17T05:07:36;6.30;99.90
22623;DHT22;11478;51.094;7.030;2023-05-17T05:10:05;6.40;99.90
22623;DHT22;11478;51.094;7.030;2023-05-17T05:12:31;6.50;99.90
22623;DHT22;11478;51.094;7.030;2023-05-17T05:14:58;6.50;99.90
22623;DHT22;11478;51.094;7.030;2023-05-17T05:17:24;6.60;99.90
22623;DHT22;11478;51.094;7.030;2023-05-17T05:19:53;6.70;99.90
22623;DHT22;11478;51.094;7.030;2023-05-17T05:22:33;6.70;99.90
22623;DHT22;11478;51.094;7.030;2023-05-17T05:25:03;6.80;99.90
22623;DHT22;11478;51.094;7.030;2023-05-17T05:27:39;6.80;99.90
22623;DHT22;11478;51.094;7.030;2023-05-17T05:30:05;6.90;99.90
22623;DHT22;11478;51.094;7.030;2023-05-17T05:32:37;6.90;99.90
22623;DHT22;11478;51.094;7.030;2023-05-17T05:35:04;6.90;99.90
22623;DHT22;11478;51.094;7.030;2023-05-17T05:37:30;7.00;99.90
22623;DHT22;11478;51.094;7.030;2023-05-17T05:39:56;7.00;99.90
22623;DHT22;11478;51.094;7.030;2023-05-17T05:42:29;7.00;99.90
22623;DHT22;11478;51.094;7.030;2023-05-17T05:44:55;7.10;99.90
22623;DHT22;11478;51.094;7.030;2023-05-17T05:47:25;7.20;99.90
22623;DHT22;11478;51.094;7.030;2023-05-17T05:49:51;7.30;99.90
22623;DHT22;11478;51.094;7.030;2023-05-17T05:52:19;7.50;99.90
22623;DHT22;11478;51.094;7.030;2023-05-17T05:54:45;7.60;99.90
22623;DHT22;11478;51.094;7.030;2023-05-17T05:57:16;7.70;99.90
22623;DHT22;11478;51.094;7.030;2023-05-17T05:59:45;7.90;99.90
22623;DHT22;11478;51.094;7.030;2023-05-17T06:02:12;7.90;99.90
22623;DHT22;11478;51.094;7.030;2023-05-17T06:04:38;8.10;99.90
22623;DHT22;11478;51.094;7.030;2023-05-17T06:07:05;8.20;99.90
22623;DHT22;11478;51.094;7.030;2023-05-17T06:09:31;8.30;99.90
22623;DHT22;11478;51.094;7.030;2023-05-17T06:11:57;8.30;99.90
22623;DHT22;11478;51.094;7.030;2023-05-17T06:14:22;8.40;99.90
22623;DHT22;11478;51.094;7.030;2023-05-17T06:16:50;8.50;99.90
22623;DHT22;11478;51.094;7.030;2023-05-17T06:19:16;8.60;99.90
22623;DHT22;11478;51.094;7.030;2023-05-17T06:21:42;8.80;99.90
22623;DHT22;11478;51.094;7.030;2023-05-17T06:24:14;8.80;99.90
22623;DHT22;11478;51.094;7.030;2023-05-17T06:26:41;8.90;99.90
22623;DHT22;11478;51.094;7.030;2023-05-17T06:29:11;9.00;99.90
22623;DHT22;11478;51.094;7.030;2023-05-17T06:31:37;9.10;99.90
22623;DHT22;11478;51.094;7.030;2023-05-17T06:34:11;9.10;99.90
22623;DHT22;11478;51.094;7.030;2023-05-17T06:36:41;9.20;99.90
22623;DHT22;11478;51.094;7.030;2023-05-17T06:39:14;9.30;99.90
22623;DHT22;11478;51.094;7.030;2023-05-17T06:41:40;9.30;99.90
22623;DHT22;11478;51.094;7.030;2023-05-17T06:44:11;9.30;99.90
22623;DHT22;11478;51.094;7.030;2023-05-17T06:46:40;9.40;99.90
22623;DHT22;11478;51.094;7.030;2023-05-17T06:49:10;9.50;99.90
22623;DHT22;11478;51.094;7.030;2023-05-17T06:51:36;9.60;99.90
22623;DHT22;11478;51.094;7.030;2023-05-17T06:54:09;9.80;99.90
22623;DHT22;11478;51.094;7.030;2023-05-17T06:56:34;9.80;99.90
22623;DHT22;11478;51.094;7.030;2023-05-17T06:59:08;9.90;99.90
22623;DHT22;11478;51.094;7.030;2023-05-17T07:01:33;10.00;99.90
22623;DHT22;11478;51.094;7.030;2023-05-17T07:03:59;10.10;99.90
22623;DHT22;11478;51.094;7.030;2023-05-17T07:06:25;10.30;99.90
22623;DHT22;11478;51.094;7.030;2023-05-17T07:08:53;10.30;99.90
22623;DHT22;11478;51.094;7.030;2023-05-17T07:11:22;10.40;99.90
22623;DHT22;11478;51.094;7.030;2023-05-17T07:13:48;10.50;99.90
22623;DHT22;11478;51.094;7.030;2023-05-17T07:16:14;10.50;99.90
22623;DHT22;11478;51.094;7.030;2023-05-17T07:18:41;10.60;99.90
22623;DHT22;11478;51.094;7.030;2023-05-17T07:21:09;10.60;99.90
22623;DHT22;11478;51.094;7.030;2023-05-17T07:23:42;10.50;99.90
22623;DHT22;11478;51.094;7.030;2023-05-17T07:26:08;10.50;99.90
22623;DHT22;11478;51.094;7.030;2023-05-17T07:28:34;10.40;99.90
22623;DHT22;11478;51.094;7.030;2023-05-17T07:31:00;10.40;99.90
22623;DHT22;11478;51.094;7.030;2023-05-17T07:33:44;10.40;99.90
22623;DHT22;11478;51.094;7.030;2023-05-17T07:36:10;10.40;99.90
22623;DHT22;11478;51.094;7.030;2023-05-17T07:38:40;10.40;99.90
22623;DHT22;11478;51.094;7.030;2023-05-17T07:41:06;10.30;99.90
22623;DHT22;11478;51.094;7.030;2023-05-17T07:43:37;10.30;99.90
22623;DHT22;11478;51.094;7.030;2023-05-17T07:46:05;10.30;99.90
22623;DHT22;11478;51.094;7.030;2023-05-17T07:48:36;10.40;99.90
22623;DHT22;11478;51.094;7.030;2023-05-17T07:51:02;10.60;99.90
22623;DHT22;11478;51.094;7.030;2023-05-17T07:53:41;10.80;99.90
22623;DHT22;11478;51.094;7.030;2023-05-17T07:56:22;10.80;99.90
22623;DHT22;11478;51.094;7.030;2023-05-17T07:58:49;10.90;99.90
22623;DHT22;11478;51.094;7.030;2023-05-17T08:01:17;11.00;99.90
22623;DHT22;11478;51.094;7.030;2023-05-17T08:03:43;11.10;99.90
22623;DHT22;11478;51.094;7.030;2023-05-17T08:06:50;11.20;99.90
22623;DHT22;11478;51.094;7.030;2023-05-17T08:09:16;11.30;99.90
22623;DHT22;11478;51.094;7.030;2023-05-17T08:15:20;11.50;99.90
22623;DHT22;11478;51.094;7.030;2023-05-17T08:17:49;11.50;99.90
22623;DHT22;11478;51.094;7.030;2023-05-17T08:20:17;11.60;99.90
22623;DHT22;11478;51.094;7.030;2023-05-17T08:23:11;11.70;99.90
22623;DHT22;11478;51.094;7.030;2023-05-17T08:25:36;11.80;99.90
22623;DHT22;11478;51.094;7.030;2023-05-17T08:28:06;12.00;99.90
22623;DHT22;11478;51.094;7.030;2023-05-17T08:30:33;12.10;99.90
22623;DHT22;11478;51.094;7.030;2023-05-17T08:33:00;12.20;99.90
22623;DHT22;11478;51.094;7.030;2023-05-17T08:35:26;12.30;99.90
22623;DHT22;11478;51.094;7.030;2023-05-17T08:38:03;12.30;99.90
22623;DHT22;11478;51.094;7.030;2023-05-17T08:40:29;12.30;99.90
22623;DHT22;11478;51.094;7.030;2023-05-17T08:42:55;12.40;99.90
22623;DHT22;11478;51.094;7.030;2023-05-17T08:45:22;12.40;99.90
22623;DHT22;11478;51.094;7.030;2023-05-17T08:47:54;12.50;99.90
22623;DHT22;11478;51.094;7.030;2023-05-17T08:50:19;12.50;99.90
22623;DHT22;11478;51.094;7.030;2023-05-17T08:52:54;12.50;99.90
22623;DHT22;11478;51.094;7.030;2023-05-17T08:55:21;12.50;99.90
22623;DHT22;11478;51.094;7.030;2023-05-17T08:57:49;12.40;99.90
22623;DHT22;11478;51.094;7.030;2023-05-17T09:00:18;12.50;99.90
22623;DHT22;11478;51.094;7.030;2023-05-17T09:05:36;12.80;99.90
22623;DHT22;11478;51.094;7.030;2023-05-17T09:08:06;12.90;99.90
22623;DHT22;11478;51.094;7.030;2023-05-17T09:10:32;13.00;99.90
22623;DHT22;11478;51.094;7.030;2023-05-17T09:13:00;12.90;99.90
22623;DHT22;11478;51.094;7.030;2023-05-17T09:15:27;12.80;99.90
22623;DHT22;11478;51.094;7.030;2023-05-17T09:18:15;12.70;99.90
22623;DHT22;11478;51.094;7.030;2023-05-17T09:20:41;12.40;99.90
22623;DHT22;11478;51.094;7.030;2023-05-17T09:23:14;12.30;99.90
22623;DHT22;11478;51.094;7.030;2023-05-17T09:25:48;12.20;99.90
22623;DHT22;11478;51.094;7.030;2023-05-17T09:28:17;12.20;99.90
22623;DHT22;11478;51.094;7.030;2023-05-17T09:31:05;12.20;99.90
22623;DHT22;11478;51.094;7.030;2023-05-17T09:33:31;12.30;99.90
22623;DHT22;11478;51.094;7.030;2023-05-17T09:36:18;12.30;99.90
22623;DHT22;11478;51.094;7.030;2023-05-17T09:39:05;12.40;99.90
22623;DHT22;11478;51.094;7.030;2023-05-17T09:44:11;12.80;99.90
22623;DHT22;11478;51.094;7.030;2023-05-17T09:46:41;13.00;99.90
22623;DHT22;11478;51.094;7.030;2023-05-17T09:49:16;13.10;99.90
22623;DHT22;11478;51.094;7.030;2023-05-17T09:51:47;13.20;99.90
22623;DHT22;11478;51.094;7.030;2023-05-17T09:54:16;13.20;99.90
22623;DHT22;11478;51.094;7.030;2023-05-17T09:56:43;13.30;99.90
22623;DHT22;11478;51.094;7.030;2023-05-17T09:59:17;13.30;99.90
22623;DHT22;11478;51.094;7.030;2023-05-17T10:01:47;13.40;99.90
22623;DHT22;11478;51.094;7.030;2023-05-17T10:04:21;13.40;99.90
22623;DHT22;11478;51.094;7.030;2023-05-17T10:06:48;13.50;99.90
22623;DHT22;11478;51.094;7.030;2023-05-17T10:09:20;13.40;99.90
22623;DHT22;11478;51.094;7.030;2023-05-17T10:11:46;13.40;99.90
22623;DHT22;11478;51.094;7.030;2023-05-17T10:16:39;13.60;99.90
22623;DHT22;11478;51.094;7.030;2023-05-17T10:19:05;13.70;99.90
22623;DHT22;11478;51.094;7.030;2023-05-17T10:21:32;13.80;99.90
22623;DHT22;11478;51.094;7.030;2023-05-17T10:24:01;13.80;99.90
22623;DHT22;11478;51.094;7.030;2023-05-17T10:26:28;13.70;99.90
22623;DHT22;11478;51.094;7.030;2023-05-17T10:29:05;13.70;99.90
22623;DHT22;11478;51.094;7.030;2023-05-17T10:31:33;13.60;99.90
22623;DHT22;11478;51.094;7.030;2023-05-17T10:34:03;13.60;99.90
22623;DHT22;11478;51.094;7.030;2023-05-17T10:36:32;13.60;99.90
22623;DHT22;11478;51.094;7.030;2023-05-17T10:39:01;13.50;99.90
22623;DHT22;11478;51.094;7.030;2023-05-17T10:41:31;13.40;99.90
22623;DHT22;11478;51.094;7.030;2023-05-17T10:44:00;13.40;99.90
22623;DHT22;11478;51.094;7.030;2023-05-17T10:46:29;13.50;99.90
22623;DHT22;11478;51.094;7.030;2023-05-17T10:49:31;13.40;99.90
22623;DHT22;11478;51.094;7.030;2023-05-17T10:52:01;13.30;99.90
22623;DHT22;11478;51.094;7.030;2023-05-17T10:54:51;13.20;99.90
22623;DHT22;11478;51.094;7.030;2023-05-17T10:57:36;13.30;99.90
22623;DHT22;11478;51.094;7.030;2023-05-17T11:00:06;13.40;99.90
22623;DHT22;11478;51.094;7.030;2023-05-17T11:02:39;13.50;99.90
22623;DHT22;11478;51.094;7.030;2023-05-17T11:05:07;13.70;99.90
22623;DHT22;11478;51.094;7.030;2023-05-17T11:07:47;13.80;99.90
22623;DHT22;11478;51.094;7.030;2023-05-17T11:10:14;13.80;99.90
22623;DHT22;11478;51.094;7.030;2023-05-17T11:12:45;13.80;99.90
22623;DHT22;11478;51.094;7.030;2023-05-17T11:15:15;13.80;99.90
22623;DHT22;11478;51.094;7.030;2023-05-17T11:20:36;14.00;99.90
22623;DHT22;11478;51.094;7.030;2023-05-17T11:23:07;14.10;99.90
22623;DHT22;11478;51.094;7.030;2023-05-17T11:25:44;14.10;99.90
22623;DHT22;11478;51.094;7.030;2023-05-17T11:28:31;13.90;99.90
22623;DHT22;11478;51.094;7.030;2023-05-17T11:31:00;13.90;99.90
22623;DHT22;11478;51.094;7.030;2023-05-17T11:33:45;14.00;99.90
22623;DHT22;11478;51.094;7.030;2023-05-17T11:36:21;14.00;99.90
22623;DHT22;11478;51.094;7.030;2023-05-17T11:39:11;14.10;99.90
22623;DHT22;11478;51.094;7.030;2023-05-17T11:41:38;14.00;99.90
22623;DHT22;11478;51.094;7.030;2023-05-17T11:44:10;14.00;99.90
22623;DHT22;11478;51.094;7.030;2023-05-17T11:46:37;13.90;99.90
22623;DHT22;11478;51.094;7.030;2023-05-17T11:49:15;13.80;99.90
22623;DHT22;11478;51.094;7.030;2023-05-17T11:51:45;13.80;99.90
22623;DHT22;11478;51.094;7.030;2023-05-17T11:54:25;13.90;99.90
22623;DHT22;11478;51.094;7.030;2023-05-17T11:56:54;14.00;99.90
22623;DHT22;11478;51.094;7.030;2023-05-17T11:59:23;14.20;99.90
22623;DHT22;11478;51.094;7.030;2023-05-17T12:01:49;14.30;99.90
22623;DHT22;11478;51.094;7.030;2023-05-17T12:04:28;14.20;99.90
22623;DHT22;11478;51.094;7.030;2023-05-17T12:06:54;14.20;99.90
22623;DHT22;11478;51.094;7.030;2023-05-17T12:09:32;14.20;99.90
22623;DHT22;11478;51.094;7.030;2023-05-17T12:12:02;14.20;99.90
22623;DHT22;11478;51.094;7.030;2023-05-17T12:14:29;14.30;99.90
22623;DHT22;11478;51.094;7.030;2023-05-17T12:17:07;14.30;99.90
22623;DHT22;11478;51.094;7.030;2023-05-17T12:19:39;14.40;99.90
22623;DHT22;11478;51.094;7.030;2023-05-17T12:22:09;14.40;99.90
22623;DHT22;11478;51.094;7.030;2023-05-17T12:24:40;14.60;99.90
22623;DHT22;11478;51.094;7.030;2023-05-17T12:27:06;14.70;99.90
22623;DHT22;11478;51.094;7.030;2023-05-17T12:29:34;14.70;99.90
22623;DHT22;11478;51.094;7.030;2023-05-17T12:32:00;14.60;99.90
22623;DHT22;11478;51.094;7.030;2023-05-17T12:34:29;14.50;99.90
22623;DHT22;11478;51.094;7.030;2023-05-17T12:36:56;14.60;99.90
22623;DHT22;11478;51.094;7.030;2023-05-17T12:39:22;14.60;99.90
22623;DHT22;11478;51.094;7.030;2023-05-17T12:41:52;14.60;99.90
22623;DHT22;11478;51.094;7.030;2023-05-17T12:44:25;14.60;99.90
22623;DHT22;11478;51.094;7.030;2023-05-17T12:46:53;14.60;99.90
22623;DHT22;11478;51.094;7.030;2023-05-17T12:49:20;14.60;99.90
22623;DHT22;11478;51.094;7.030;2023-05-17T12:51:47;14.50;99.90
22623;DHT22;11478;51.094;7.030;2023-05-17T12:54:26;14.60;99.90
22623;DHT22;11478;51.094;7.030;2023-05-17T12:56:52;14.60;99.90
22623;DHT22;11478;51.094;7.030;2023-05-17T12:59:20;14.70;99.90
22623;DHT22;11478;51.094;7.030;2023-05-17T13:01:54;14.70;99.90
22623;DHT22;11478;51.094;7.030;2023-05-17T13:04:28;14.70;99.90
22623;DHT22;11478;51.094;7.030;2023-05-17T13:07:22;14.60;99.90
22623;DHT22;11478;51.094;7.030;2023-05-17T13:09:50;14.60;99.90
22623;DHT22;11478;51.094;7.030;2023-05-17T13:12:27;14.60;99.90
22623;DHT22;11478;51.094;7.030;2023-05-17T13:14:53;14.60;99.90
22623;DHT22;11478;51.094;7.030;2023-05-17T13:17:34;14.60;99.90
22623;DHT22;11478;51.094;7.030;2023-05-17T13:20:01;14.60;99.90
22623;DHT22;11478;51.094;7.030;2023-05-17T13:22:47;14.70;99.90
22623;DHT22;11478;51.094;7.030;2023-05-17T13:25:16;14.60;99.90
22623;DHT22;11478;51.094;7.030;2023-05-17T13:27:45;14.60;99.90
22623;DHT22;11478;51.094;7.030;2023-05-17T13:30:16;14.60;99.90
22623;DHT22;11478;51.094;7.030;2023-05-17T13:32:43;14.70;99.90
22623;DHT22;11478;51.094;7.030;2023-05-17T13:35:11;14.70;99.90
22623;DHT22;11478;51.094;7.030;2023-05-17T13:37:39;14.70;99.90
22623;DHT22;11478;51.094;7.030;2023-05-17T13:40:05;14.70;99.90
22623;DHT22;11478;51.094;7.030;2023-05-17T13:42:33;14.70;99.90
22623;DHT22;11478;51.094;7.030;2023-05-17T13:44:59;14.70;99.90
22623;DHT22;11478;51.094;7.030;2023-05-17T13:47:26;14.70;99.90
22623;DHT22;11478;51.094;7.030;2023-05-17T13:49:54;14.80;99.90
22623;DHT22;11478;51.094;7.030;2023-05-17T13:52:20;14.90;99.90
22623;DHT22;11478;51.094;7.030;2023-05-17T13:54:48;14.90;99.90
22623;DHT22;11478;51.094;7.030;2023-05-17T13:57:14;15.00;99.90
22623;DHT22;11478;51.094;7.030;2023-05-17T14:02:25;14.90;99.90
22623;DHT22;11478;51.094;7.030;2023-05-17T14:04:52;14.90;99.90
22623;DHT22;11478;51.094;7.030;2023-05-17T14:07:19;14.90;99.90
22623;DHT22;11478;51.094;7.030;2023-05-17T14:09:52;15.00;99.90
22623;DHT22;11478;51.094;7.030;2023-05-17T14:12:22;15.10;99.90
22623;DHT22;11478;51.094;7.030;2023-05-17T14:14:58;15.10;99.90
22623;DHT22;11478;51.094;7.030;2023-05-17T14:17:27;15.20;99.90
22623;DHT22;11478;51.094;7.030;2023-05-17T14:19:57;15.20;99.90
22623;DHT22;11478;51.094;7.030;2023-05-17T14:22:24;15.20;99.90
22623;DHT22;11478;51.094;7.030;2023-05-17T14:24:50;15.10;99.90
22623;DHT22;11478;51.094;7.030;2023-05-17T14:27:31;15.10;99.90
22623;DHT22;11478;51.094;7.030;2023-05-17T14:29:58;15.20;99.90
22623;DHT22;11478;51.094;7.030;2023-05-17T14:32:26;15.20;99.90
22623;DHT22;11478;51.094;7.030;2023-05-17T14:34:53;15.10;99.90
22623;DHT22;11478;51.094;7.030;2023-05-17T14:37:26;15.10;99.90
22623;DHT22;11478;51.094;7.030;2023-05-17T14:39:52;15.10;99.90
22623;DHT22;11478;51.094;7.030;2023-05-17T14:42:19;15.10;99.90
22623;DHT22;11478;51.094;7.030;2023-05-17T14:44:45;15.10;99.90
22623;DHT22;11478;51.094;7.030;2023-05-17T14:47:13;15.20;99.90
22623;DHT22;11478;51.094;7.030;2023-05-17T14:49:52;15.10;99.90
22623;DHT22;11478;51.094;7.030;2023-05-17T14:52:18;15.10;99.90
22623;DHT22;11478;51.094;7.030;2023-05-17T14:54:44;15.10;99.90
22623;DHT22;11478;51.094;7.030;2023-05-17T14:57:10;15.20;99.90
22623;DHT22;11478;51.094;7.030;2023-05-17T14:59:38;15.20;99.90
22623;DHT22;11478;51.094;7.030;2023-05-17T15:02:04;15.30;99.90
22623;DHT22;11478;51.094;7.030;2023-05-17T15:04:31;15.40;99.90
22623;DHT22;11478;51.094;7.030;2023-05-17T15:06:58;15.30;99.90
22623;DHT22;11478;51.094;7.030;2023-05-17T15:09:24;15.20;99.90
22623;DHT22;11478;51.094;7.030;2023-05-17T15:11:50;15.20;99.90
22623;DHT22;11478;51.094;7.030;2023-05-17T15:14:16;15.20;99.90
22623;DHT22;11478;51.094;7.030;2023-05-17T15:16:55;15.20;99.90
22623;DHT22;11478;51.094;7.030;2023-05-17T15:19:25;15.10;99.90
22623;DHT22;11478;51.094;7.030;2023-05-17T15:21:52;15.10;99.90
22623;DHT22;11478;51.094;7.030;2023-05-17T15:24:18;15.10;99.90
22623;DHT22;11478;51.094;7.030;2023-05-17T15:26:44;15.10;99.90
22623;DHT22;11478;51.094;7.030;2023-05-17T15:29:19;15.10;99.90
22623;DHT22;11478;51.094;7.030;2023-05-17T15:31:46;15.10;99.90
22623;DHT22;11478;51.094;7.030;2023-05-17T15:34:13;15.20;99.90
22623;DHT22;11478;51.094;7.030;2023-05-17T15:36:40;15.30;99.90
22623;DHT22;11478;51.094;7.030;2023-05-17T15:39:08;15.40;99.90
22623;DHT22;11478;51.094;7.030;2023-05-17T15:41:35;15.40;98.90
22623;DHT22;11478;51.094;7.030;2023-05-17T15:44:02;15.40;99.90
22623;DHT22;11478;51.094;7.030;2023-05-17T15:46:29;15.30;99.90
22623;DHT22;11478;51.094;7.030;2023-05-17T15:48:56;15.30;99.90
22623;DHT22;11478;51.094;7.030;2023-05-17T15:51:22;15.40;99.90
22623;DHT22;11478;51.094;7.030;2023-05-17T15:53:54;15.40;99.90
22623;DHT22;11478;51.094;7.030;2023-05-17T15:56:23;15.50;99.90
22623;DHT22;11478;51.094;7.030;2023-05-17T15:58:49;15.50;99.90
22623;DHT22;11478;51.094;7.030;2023-05-17T16:01:16;15.50;99.90
22623;DHT22;11478;51.094;7.030;2023-05-17T16:03:45;15.50;99.90
22623;DHT22;11478;51.094;7.030;2023-05-17T16:06:11;15.50;99.90
22623;DHT22;11478;51.094;7.030;2023-05-17T16:08:42;15.50;99.90
22623;DHT22;11478;51.094;7.030;2023-05-17T16:11:08;15.50;99.90
22623;DHT22;11478;51.094;7.030;2023-05-17T16:13:46;15.50;99.90
22623;DHT22;11478;51.094;7.030;2023-05-17T16:16:12;15.50;99.90
22623;DHT22;11478;51.094;7.030;2023-05-17T16:19:02;15.50;99.90
22623;DHT22;11478;51.094;7.030;2023-05-17T16:21:28;15.40;99.90
22623;DHT22;11478;51.094;7.030;2023-05-17T16:23:58;15.40;99.90
22623;DHT22;11478;51.094;7.030;2023-05-17T16:26:24;15.50;99.90
22623;DHT22;11478;51.094;7.030;2023-05-17T16:28:54;15.50;99.90
22623;DHT22;11478;51.094;7.030;2023-05-17T16:31:21;15.50;99.90